Time;durP1;ratioP1;P1;durP2;ratioP2;P2;SDS_P1;SDS_P2;PMS_P1;PMS_P2;Temp;Humidity;BMP_temperature;BMP_pressure;BME280_temperature;BME280_humidity;BME280_pressure;Samples;Min_cycle;Max_cycle;Signal;HPM_P1;HPM_P2
2021/03/02 00:01:36;;;;;;;15.83;7.53;;;5.40;68.10;;;;;;4943679;29;20035;-77
2021/03/02 00:04:05;;;;;;;16.43;7.10;;;5.30;68.10;;;;;;4954399;29;20445;-77
2021/03/02 00:06:30;;;;;;;15.87;7.50;;;5.30;68.30;;;;;;4954786;29;20126;-77
2021/03/02 00:08:58;;;;;;;15.83;7.23;;;5.30;68.40;;;;;;4954929;29;20070;-76
2021/03/02 00:11:27;;;;;;;19.07;7.50;;;5.30;68.50;;;;;;4954195;28;20098;-78
2021/03/02 00:13:53;;;;;;;14.97;7.60;;;5.20;68.30;;;;;;4955807;28;20042;-77
2021/03/02 00:16:25;;;;;;;16.77;7.43;;;5.10;68.40;;;;;;4954525;29;20039;-77
2021/03/02 00:19:08;;;;;;;21.98;9.15;;;5.10;68.80;;;;;;4956141;28;20071;-76
2021/03/02 00:21:40;;;;;;;17.00;7.50;;;5.10;68.60;;;;;;4938478;29;20101;-76
2021/03/02 00:24:10;;;;;;;13.95;6.78;;;5.20;68.50;;;;;;4938488;29;20043;-79
2021/03/02 00:26:40;;;;;;;15.43;7.30;;;5.40;68.30;;;;;;4938682;29;20472;-77
2021/03/02 00:29:06;;;;;;;17.50;7.90;;;5.30;68.30;;;;;;4938317;29;20035;-78
2021/03/02 00:31:34;;;;;;;16.40;8.27;;;5.30;68.10;;;;;;4938367;29;20102;-77
2021/03/02 00:34:00;;;;;;;19.10;8.57;;;5.30;68.20;;;;;;4941290;29;20087;-77
2021/03/02 00:36:26;;;;;;;15.63;7.43;;;5.20;68.30;;;;;;4954126;29;20036;-78
2021/03/02 00:38:52;;;;;;;13.97;7.20;;;5.10;68.60;;;;;;4954755;29;20383;-77
2021/03/02 00:41:18;;;;;;;14.17;7.07;;;5.10;68.90;;;;;;4955388;28;20070;-78
2021/03/02 00:43:44;;;;;;;15.23;7.20;;;5.00;69.30;;;;;;4955236;28;20035;-77
2021/03/02 00:46:10;;;;;;;15.70;6.40;;;5.00;69.40;;;;;;4955191;28;20037;-78
2021/03/02 00:48:35;;;;;;;14.07;7.47;;;5.00;69.60;;;;;;4954593;29;20062;-77
2021/03/02 00:51:01;;;;;;;18.20;7.13;;;4.90;69.50;;;;;;4954210;29;20047;-77
2021/03/02 00:53:27;;;;;;;19.60;6.93;;;4.90;69.70;;;;;;4953226;29;20039;-78
2021/03/02 00:55:53;;;;;;;15.03;6.97;;;4.80;70.10;;;;;;4954167;29;20476;-78
2021/03/02 00:58:19;;;;;;;15.40;7.10;;;5.00;70.30;;;;;;4954921;28;20480;-78
2021/03/02 01:00:45;;;;;;;16.63;7.13;;;5.10;70.90;;;;;;4954259;29;20088;-77
2021/03/02 01:03:11;;;;;;;14.13;6.73;;;5.20;69.40;;;;;;4954795;28;20038;-78
2021/03/02 01:05:36;;;;;;;15.67;6.93;;;5.30;69.30;;;;;;4954325;29;20035;-77
2021/03/02 01:08:04;;;;;;;15.77;6.70;;;5.30;69.00;;;;;;4954095;29;20070;-76
2021/03/02 01:10:29;;;;;;;14.13;6.93;;;5.40;68.90;;;;;;4953280;29;20280;-76
2021/03/02 01:12:55;;;;;;;14.37;6.90;;;5.40;68.70;;;;;;4953757;29;20555;-76
2021/03/02 01:15:20;;;;;;;13.13;6.27;;;5.40;68.60;;;;;;4953161;29;20035;-76
2021/03/02 01:17:46;;;;;;;14.77;6.77;;;5.40;68.40;;;;;;4953642;29;20074;-76
2021/03/02 01:20:12;;;;;;;13.13;7.30;;;5.30;67.80;;;;;;4953251;29;20047;-77
2021/03/02 01:22:38;;;;;;;14.90;6.93;;;5.20;68.00;;;;;;4953947;28;20043;-76
2021/03/02 01:25:10;;;;;;;16.50;6.50;;;5.10;68.30;;;;;;4954734;28;20063;-76
2021/03/02 01:27:36;;;;;;;17.38;6.95;;;5.00;69.00;;;;;;4954299;28;20035;-76
2021/03/02 01:30:03;;;;;;;14.27;7.00;;;4.90;69.30;;;;;;4953588;29;20440;-75
2021/03/02 01:32:29;;;;;;;14.67;6.57;;;4.80;69.70;;;;;;4952151;29;20046;-75
2021/03/02 01:34:54;;;;;;;13.83;6.50;;;4.70;70.40;;;;;;4963031;28;20468;-76
2021/03/02 01:37:20;;;;;;;17.43;8.13;;;4.60;70.80;;;;;;4949539;29;20126;-76
2021/03/02 01:39:46;;;;;;;13.30;6.37;;;4.70;71.10;;;;;;4953357;29;20038;-76
2021/03/02 01:42:11;;;;;;;15.63;6.83;;;4.70;70.90;;;;;;4952822;29;20039;-78
2021/03/02 01:44:37;;;;;;;18.77;6.70;;;4.80;70.80;;;;;;4953764;28;20036;-76
2021/03/02 01:47:03;;;;;;;18.40;6.63;;;4.70;70.80;;;;;;4954586;28;20350;-76
2021/03/02 01:49:28;;;;;;;13.97;6.47;;;4.70;70.70;;;;;;4952794;29;20487;-76
2021/03/02 01:51:54;;;;;;;13.97;7.03;;;4.70;70.80;;;;;;4953121;29;20393;-76
2021/03/02 01:54:20;;;;;;;12.67;6.43;;;4.60;70.70;;;;;;4952883;29;20047;-76
2021/03/02 01:56:45;;;;;;;14.77;7.17;;;4.50;71.10;;;;;;4953451;29;20036;-75
2021/03/02 01:59:12;;;;;;;12.90;6.43;;;4.50;70.90;;;;;;4953042;29;20507;-76
2021/03/02 02:01:38;;;;;;;15.43;7.07;;;4.60;70.20;;;;;;4953073;29;20043;-77
2021/03/02 02:04:26;;;;;;;15.13;7.47;;;4.60;70.10;;;;;;4953214;29;20399;-77
2021/03/02 02:06:58;;;;;;;13.47;7.33;;;4.40;71.10;;;;;;4953436;29;20040;-77
2021/03/02 02:09:26;;;;;;;16.27;7.40;;;4.30;71.90;;;;;;4953498;28;20094;-77
2021/03/02 02:12:01;;;;;;;19.73;7.90;;;4.30;71.40;;;;;;4953081;29;20035;-77
2021/03/02 02:14:54;;;;;;;18.63;7.80;;;4.20;72.00;;;;;;4952505;29;20061;-77
2021/03/02 02:17:29;;;;;;;18.00;7.37;;;4.20;72.30;;;;;;4952127;29;20035;-78
2021/03/02 02:20:00;;;;;;;17.10;7.50;;;4.20;72.20;;;;;;4954553;28;20058;-76
2021/03/02 02:22:49;;;;;;;17.02;7.97;;;4.20;72.40;;;;;;4952202;29;20051;-77
2021/03/02 02:25:42;;;;;;;19.87;8.37;;;4.10;72.80;;;;;;4945843;29;20071;-79
2021/03/02 02:28:09;;;;;;;16.50;7.40;;;4.10;72.90;;;;;;4952996;29;20035;-77
2021/03/02 02:30:38;;;;;;;18.07;8.10;;;4.10;72.50;;;;;;4953197;28;20114;-77
2021/03/02 02:33:06;;;;;;;15.40;7.60;;;4.20;72.30;;;;;;4953011;29;20123;-77
2021/03/02 02:35:32;;;;;;;17.93;7.93;;;4.10;72.70;;;;;;4953720;28;20046;-77
2021/03/02 02:37:59;;;;;;;15.63;8.17;;;4.10;72.70;;;;;;4957597;28;20031;-77
2021/03/02 02:40:26;;;;;;;17.87;8.00;;;4.00;73.10;;;;;;4956008;29;20092;-77
2021/03/02 02:42:53;;;;;;;18.17;8.03;;;4.00;73.10;;;;;;4956148;29;20126;-76
2021/03/02 02:45:20;;;;;;;16.90;7.60;;;3.90;73.40;;;;;;4956726;28;20127;-77
2021/03/02 02:47:48;;;;;;;19.20;7.93;;;3.80;73.40;;;;;;4957622;28;20039;-77
2021/03/02 02:50:14;;;;;;;16.47;7.70;;;3.80;73.50;;;;;;4956329;29;20093;-77
2021/03/02 02:52:41;;;;;;;18.60;8.37;;;3.80;73.60;;;;;;4955706;29;20043;-76
2021/03/02 02:55:07;;;;;;;16.60;7.83;;;3.90;74.20;;;;;;4946846;28;20027;-77
2021/03/02 02:57:39;;;;;;;15.73;7.47;;;3.80;74.10;;;;;;4938998;29;20291;-78
2021/03/02 03:00:05;;;;;;;15.80;7.47;;;3.80;73.80;;;;;;4938963;29;20381;-77
2021/03/02 03:02:34;;;;;;;16.60;7.40;;;3.90;73.80;;;;;;4943126;29;20114;-78
2021/03/02 03:05:14;;;;;;;15.47;8.30;;;4.00;73.40;;;;;;4956308;29;20464;-77
2021/03/02 03:07:51;;;;;;;15.53;7.00;;;4.00;73.00;;;;;;4956410;29;20047;-77
2021/03/02 03:10:17;;;;;;;16.43;7.33;;;3.90;72.80;;;;;;4955911;29;20046;-78
2021/03/02 03:12:48;;;;;;;16.83;7.33;;;3.80;73.10;;;;;;4956316;29;20325;-77
2021/03/02 03:15:18;;;;;;;16.50;7.30;;;3.90;72.70;;;;;;4957400;28;20031;-77
2021/03/02 03:17:54;;;;;;;17.90;7.47;;;3.90;72.10;;;;;;4972133;28;20039;-78
2021/03/02 03:20:22;;;;;;;14.47;7.53;;;3.70;72.10;;;;;;4955608;29;20035;-78
2021/03/02 03:22:48;;;;;;;17.83;7.47;;;3.60;72.40;;;;;;4957007;28;20097;-78
2021/03/02 03:25:15;;;;;;;16.77;7.17;;;3.50;72.70;;;;;;4956956;28;20036;-78
2021/03/02 03:27:45;;;;;;;14.67;6.97;;;3.40;73.10;;;;;;4956046;29;20037;-78
2021/03/02 03:30:12;;;;;;;14.40;6.90;;;3.30;73.50;;;;;;4952751;28;20114;-77
2021/03/02 03:32:42;;;;;;;13.83;6.83;;;3.20;73.60;;;;;;4937513;29;20032;-78
2021/03/02 03:35:08;;;;;;;16.50;7.37;;;3.20;73.80;;;;;;4952896;29;20046;-78
2021/03/02 03:37:34;;;;;;;16.07;7.37;;;3.10;73.90;;;;;;4955444;29;20042;-78
2021/03/02 03:40:00;;;;;;;16.43;7.17;;;3.10;73.90;;;;;;4955861;29;20031;-77
2021/03/02 03:42:26;;;;;;;14.97;7.43;;;3.10;73.80;;;;;;4955207;29;20092;-78
2021/03/02 03:44:51;;;;;;;18.03;7.07;;;3.20;73.40;;;;;;4955812;29;20035;-77
2021/03/02 03:47:17;;;;;;;14.77;6.80;;;3.20;73.30;;;;;;4955889;28;20115;-78
2021/03/02 03:49:43;;;;;;;14.67;6.77;;;3.10;73.50;;;;;;4956651;28;20357;-77
2021/03/02 03:52:10;;;;;;;13.10;7.13;;;3.00;73.80;;;;;;4955094;29;20063;-76
2021/03/02 03:54:37;;;;;;;18.37;7.10;;;3.10;73.80;;;;;;4954802;29;20468;-77
2021/03/02 03:57:03;;;;;;;13.27;6.87;;;3.10;74.50;;;;;;4955503;29;20118;-77
2021/03/02 03:59:29;;;;;;;16.50;6.93;;;3.10;73.20;;;;;;4956137;28;20408;-78
2021/03/02 04:01:56;;;;;;;15.93;7.57;;;3.10;73.10;;;;;;4955664;29;20159;-77
2021/03/02 04:04:24;;;;;;;17.93;7.13;;;3.10;73.30;;;;;;4945495;29;20035;-77
2021/03/02 04:06:50;;;;;;;14.17;6.37;;;3.00;73.30;;;;;;4937276;29;20036;-77
2021/03/02 04:09:17;;;;;;;20.07;6.70;;;2.90;73.80;;;;;;4936380;29;20038;-77
2021/03/02 04:11:43;;;;;;;14.83;6.93;;;2.80;74.20;;;;;;4935627;29;20050;-77
2021/03/02 04:14:09;;;;;;;12.27;6.20;;;2.80;73.90;;;;;;4936755;29;20115;-77
2021/03/02 04:16:36;;;;;;;12.63;5.63;;;2.80;73.80;;;;;;4935184;29;20032;-77
2021/03/02 04:19:03;;;;;;;15.40;6.60;;;2.80;73.90;;;;;;4936993;29;20027;-77
2021/03/02 04:21:29;;;;;;;13.17;6.47;;;2.80;73.70;;;;;;4934977;29;20035;-77
2021/03/02 04:23:54;;;;;;;16.20;6.77;;;2.90;73.30;;;;;;4935599;29;20055;-77
2021/03/02 04:26:20;;;;;;;14.17;6.60;;;2.90;72.90;;;;;;4935281;29;20036;-77
2021/03/02 04:28:46;;;;;;;10.80;5.80;;;2.90;72.70;;;;;;4935668;29;20035;-77
2021/03/02 04:31:11;;;;;;;13.03;6.50;;;2.90;72.70;;;;;;4935557;29;20393;-77
2021/03/02 04:33:37;;;;;;;12.60;5.93;;;2.80;72.70;;;;;;4934877;29;20032;-77
2021/03/02 04:36:04;;;;;;;16.07;6.87;;;2.60;73.20;;;;;;4935499;29;20036;-77
2021/03/02 04:38:29;;;;;;;13.90;6.10;;;2.60;73.70;;;;;;4935139;29;20042;-78
2021/03/02 04:40:55;;;;;;;12.27;5.87;;;2.50;73.50;;;;;;4935472;29;20140;-78
2021/03/02 04:43:20;;;;;;;12.43;5.37;;;2.40;73.80;;;;;;4934920;29;20380;-77
2021/03/02 04:45:46;;;;;;;12.83;5.77;;;2.30;74.40;;;;;;4935369;29;20031;-77
2021/03/02 04:48:12;;;;;;;11.27;5.60;;;2.30;74.50;;;;;;4935476;29;20030;-77
2021/03/02 04:50:37;;;;;;;11.10;5.10;;;2.30;74.70;;;;;;4934853;29;20497;-77
2021/03/02 04:53:03;;;;;;;12.53;5.50;;;2.40;74.60;;;;;;4935287;29;20032;-77
2021/03/02 04:55:28;;;;;;;9.93;5.10;;;2.30;74.50;;;;;;4934815;29;20051;-77
2021/03/02 04:57:54;;;;;;;12.33;5.53;;;2.30;74.70;;;;;;4953256;28;20037;-76
2021/03/02 05:00:20;;;;;;;11.87;5.60;;;2.20;75.10;;;;;;4954837;28;20382;-77
2021/03/02 05:02:46;;;;;;;11.50;5.30;;;2.20;74.90;;;;;;4954298;29;20536;-77
2021/03/02 05:05:12;;;;;;;12.20;5.20;;;2.20;74.90;;;;;;4954319;29;20122;-78
2021/03/02 05:07:37;;;;;;;11.47;5.47;;;2.20;75.10;;;;;;4954938;28;20448;-77
2021/03/02 05:10:04;;;;;;;10.33;5.13;;;2.20;75.30;;;;;;4954099;29;20039;-76
2021/03/02 05:12:29;;;;;;;9.70;5.17;;;2.20;75.20;;;;;;4954558;28;20164;-78
2021/03/02 05:14:55;;;;;;;11.10;5.33;;;2.20;75.20;;;;;;4955222;29;20023;-77
2021/03/02 05:17:20;;;;;;;13.23;5.63;;;2.20;75.20;;;;;;4954711;29;20103;-78
2021/03/02 05:19:46;;;;;;;11.23;5.83;;;2.20;75.20;;;;;;4941517;29;20047;-77
2021/03/02 05:22:12;;;;;;;13.10;5.47;;;2.30;75.10;;;;;;4951521;29;20043;-77
2021/03/02 05:24:38;;;;;;;14.40;5.80;;;2.20;75.30;;;;;;4953684;29;20375;-77
2021/03/02 05:27:04;;;;;;;13.53;5.90;;;2.20;75.40;;;;;;4953888;29;20031;-77
2021/03/02 05:29:29;;;;;;;15.33;6.77;;;2.20;75.40;;;;;;4953461;29;20038;-78
2021/03/02 05:31:55;;;;;;;11.53;6.20;;;2.10;75.90;;;;;;4968767;28;20404;-76
2021/03/02 05:34:21;;;;;;;12.53;5.83;;;2.10;76.00;;;;;;4953412;29;20027;-77
2021/03/02 05:36:47;;;;;;;12.37;5.63;;;2.10;76.00;;;;;;4955120;29;20101;-77
2021/03/02 05:39:12;;;;;;;12.60;6.00;;;2.00;76.20;;;;;;4947699;29;20053;-78
2021/03/02 05:41:41;;;;;;;13.57;6.00;;;2.00;76.50;;;;;;4943148;29;20126;-77
2021/03/02 05:44:10;;;;;;;10.53;5.53;;;2.00;76.40;;;;;;4951523;29;20041;-78
2021/03/02 05:46:37;;;;;;;10.73;5.53;;;2.00;76.30;;;;;;4953877;29;20059;-78
2021/03/02 05:49:04;;;;;;;17.43;5.90;;;2.00;76.40;;;;;;4948901;28;20098;-78
2021/03/02 05:51:30;;;;;;;12.67;5.47;;;2.00;76.80;;;;;;4945468;29;20054;-78
2021/03/02 05:53:57;;;;;;;11.43;5.20;;;2.10;76.70;;;;;;4949558;29;20130;-78
2021/03/02 05:56:22;;;;;;;11.40;5.70;;;2.00;76.90;;;;;;4943696;29;20032;-78
2021/03/02 05:58:51;;;;;;;10.47;5.33;;;2.00;77.20;;;;;;4947825;29;20039;-78
2021/03/02 06:01:17;;;;;;;12.70;5.63;;;2.00;77.40;;;;;;4935959;28;20032;-78
2021/03/02 06:03:43;;;;;;;12.80;6.23;;;2.10;77.50;;;;;;4946922;29;20130;-78
2021/03/02 06:06:08;;;;;;;11.60;5.83;;;2.10;77.60;;;;;;4954848;29;20111;-82
2021/03/02 06:08:34;;;;;;;12.90;5.63;;;2.20;76.90;;;;;;4955006;28;20115;-80
2021/03/02 06:11:25;;;;;;;14.93;6.30;;;2.20;76.50;;;;;;4958988;28;20058;-80
2021/03/02 06:13:51;;;;;;;13.20;6.10;;;2.20;76.40;;;;;;4957876;29;20069;-80
2021/03/02 06:16:16;;;;;;;15.07;6.30;;;2.20;76.80;;;;;;4958142;29;20527;-80
2021/03/02 06:18:50;;;;;;;14.07;6.07;;;2.20;76.50;;;;;;4957626;29;20099;-80
2021/03/02 06:21:16;;;;;;;13.27;6.23;;;2.20;75.30;;;;;;4957964;29;20091;-80
2021/03/02 06:24:00;;;;;;;14.00;5.80;;;2.20;75.00;;;;;;4957016;29;20192;-80
2021/03/02 06:26:26;;;;;;;12.03;5.57;;;2.20;75.00;;;;;;4957060;29;20042;-80
2021/03/02 06:28:56;;;;;;;15.73;6.43;;;2.20;74.90;;;;;;4957531;29;20035;-80
2021/03/02 06:31:38;;;;;;;14.57;6.03;;;2.20;75.40;;;;;;4957207;29;20044;-83
2021/03/02 06:34:11;;;;;;;11.95;5.50;;;2.20;75.80;;;;;;4957873;29;20063;-79
2021/03/02 06:37:09;;;;;;;14.67;6.73;;;2.10;76.00;;;;;;4957205;29;20090;-80
2021/03/02 06:39:39;;;;;;;11.73;5.70;;;2.00;76.80;;;;;;4925543;29;20063;-80
2021/03/02 06:42:15;;;;;;;16.07;6.17;;;2.00;77.00;;;;;;4958748;28;20038;-79
2021/03/02 06:44:46;;;;;;;15.17;6.17;;;2.00;76.90;;;;;;4956951;29;20039;-80
2021/03/02 06:47:13;;;;;;;13.47;6.17;;;2.00;76.80;;;;;;4957363;29;20038;-79
2021/03/02 06:49:42;;;;;;;14.67;5.93;;;2.10;76.70;;;;;;4957067;29;20269;-80
2021/03/02 06:52:17;;;;;;;16.80;6.57;;;2.10;77.10;;;;;;4957016;29;20077;-79
2021/03/02 06:54:44;;;;;;;11.43;5.90;;;2.10;77.00;;;;;;4956960;29;20062;-80
2021/03/02 06:57:09;;;;;;;13.80;6.60;;;2.10;76.80;;;;;;4957443;29;20031;-80
2021/03/02 06:59:35;;;;;;;13.30;5.90;;;2.20;76.60;;;;;;4952015;29;20054;-80
2021/03/02 07:02:01;;;;;;;14.80;6.30;;;2.20;76.90;;;;;;4957313;29;20031;-79
2021/03/02 07:04:30;;;;;;;12.77;6.10;;;2.30;76.70;;;;;;4957512;28;20042;-80
2021/03/02 07:06:58;;;;;;;13.87;6.37;;;2.20;77.00;;;;;;4948377;29;20036;-80
2021/03/02 07:09:25;;;;;;;12.43;5.97;;;2.20;76.80;;;;;;4937459;29;20469;-80
2021/03/02 07:11:52;;;;;;;16.97;6.10;;;2.10;77.50;;;;;;4938920;29;20039;-79
2021/03/02 07:14:18;;;;;;;14.77;6.90;;;2.10;77.50;;;;;;4937478;29;20031;-80
2021/03/02 07:16:46;;;;;;;12.73;5.50;;;2.20;78.10;;;;;;4937437;29;20058;-80
2021/03/02 07:19:17;;;;;;;12.50;6.00;;;2.10;78.20;;;;;;4937305;29;20499;-80
2021/03/02 07:21:46;;;;;;;13.93;6.57;;;2.20;78.60;;;;;;4935658;29;20036;-80
2021/03/02 07:24:13;;;;;;;13.10;6.30;;;2.20;78.80;;;;;;4937776;29;20043;-80
2021/03/02 07:26:44;;;;;;;14.53;6.27;;;2.30;78.90;;;;;;4937210;29;20032;-80
2021/03/02 07:29:10;;;;;;;12.83;6.33;;;2.40;79.00;;;;;;4939403;29;20127;-80
2021/03/02 07:31:37;;;;;;;14.90;6.20;;;2.40;79.40;;;;;;4955686;29;20131;-80
2021/03/02 07:34:06;;;;;;;14.80;6.77;;;2.50;79.60;;;;;;4949801;29;20550;-80
2021/03/02 07:36:43;;;;;;;15.67;6.40;;;2.60;79.10;;;;;;4936920;29;20094;-80
2021/03/02 07:39:16;;;;;;;16.97;7.33;;;2.60;78.80;;;;;;4937163;29;20504;-80
2021/03/02 07:41:43;;;;;;;13.77;6.20;;;2.70;79.50;;;;;;4936738;29;20039;-80
2021/03/02 07:44:09;;;;;;;15.63;7.10;;;2.70;79.30;;;;;;4937183;29;20070;-80
2021/03/02 07:46:39;;;;;;;17.70;7.20;;;2.80;79.00;;;;;;4936654;29;20040;-79
2021/03/02 07:49:24;;;;;;;13.40;6.53;;;2.90;79.30;;;;;;4937176;29;20123;-80
2021/03/02 07:52:01;;;;;;;12.77;6.73;;;2.90;79.60;;;;;;4939921;29;20052;-80
2021/03/02 07:54:28;;;;;;;15.03;7.17;;;3.00;79.20;;;;;;4952581;29;20032;-80
2021/03/02 07:57:13;;;;;;;18.03;7.30;;;3.10;79.00;;;;;;4945416;29;20035;-80
2021/03/02 07:59:38;;;;;;;17.63;6.73;;;3.20;78.70;;;;;;4952640;29;20035;-80
2021/03/02 08:02:16;;;;;;;15.37;7.00;;;3.30;79.30;;;;;;4936802;29;20165;-79
2021/03/02 08:04:44;;;;;;;16.30;6.97;;;3.40;78.20;;;;;;4943944;29;20096;-80
2021/03/02 08:07:21;;;;;;;12.33;6.87;;;3.50;77.80;;;;;;4936650;29;20039;-80
2021/03/02 08:09:48;;;;;;;16.93;7.00;;;3.50;77.80;;;;;;4936164;29;20071;-80
2021/03/02 08:12:33;;;;;;;15.60;6.37;;;3.50;78.30;;;;;;4937621;29;20035;-79
2021/03/02 08:15:19;;;;;;;14.63;6.87;;;3.60;78.30;;;;;;4936811;29;20259;-80
2021/03/02 08:17:45;;;;;;;14.00;6.30;;;3.70;77.50;;;;;;4926054;29;20032;-78
2021/03/02 08:20:10;;;;;;;15.50;6.23;;;3.70;77.80;;;;;;4936313;29;20050;-80
2021/03/02 08:22:42;;;;;;;13.30;7.33;;;3.80;77.20;;;;;;4935290;29;20052;-80
2021/03/02 08:25:27;;;;;;;12.15;6.38;;;3.80;77.20;;;;;;4936669;29;20036;-79
2021/03/02 08:27:56;;;;;;;16.50;6.83;;;3.90;77.40;;;;;;4936439;29;20127;-79
2021/03/02 08:30:26;;;;;;;14.77;6.53;;;4.00;76.80;;;;;;4937394;29;20043;-80
2021/03/02 08:32:54;;;;;;;14.93;6.07;;;4.00;76.70;;;;;;4935284;29;20380;-80
2021/03/02 08:35:31;;;;;;;13.13;6.67;;;4.10;76.40;;;;;;4937186;29;20039;-79
2021/03/02 08:38:00;;;;;;;14.47;6.67;;;4.20;75.80;;;;;;4936394;29;20031;-80
2021/03/02 08:40:31;;;;;;;15.40;6.30;;;4.20;75.70;;;;;;4935885;29;20044;-77
2021/03/02 08:43:25;;;;;;;15.63;6.13;;;4.30;75.70;;;;;;4937596;29;20480;-78
2021/03/02 08:45:52;;;;;;;12.53;6.10;;;4.40;75.60;;;;;;4953764;29;20036;-77
2021/03/02 08:48:21;;;;;;;14.50;6.80;;;4.50;75.20;;;;;;4955387;28;20042;-79
2021/03/02 08:50:50;;;;;;;11.90;6.13;;;4.50;74.90;;;;;;4953710;29;20044;-78
2021/03/02 08:53:32;;;;;;;11.03;5.87;;;4.60;74.90;;;;;;4948040;29;20123;-76
2021/03/02 08:55:59;;;;;;;12.45;5.97;;;4.60;74.90;;;;;;4936466;29;20074;-77
2021/03/02 08:58:35;;;;;;;16.10;6.23;;;4.70;74.90;;;;;;4934747;29;20032;-77
2021/03/02 09:01:04;;;;;;;10.30;5.57;;;4.70;74.80;;;;;;4952443;29;20046;-81
2021/03/02 09:03:30;;;;;;;15.17;5.87;;;4.80;74.50;;;;;;4955062;29;20066;-86
2021/03/02 09:06:12;;;;;;;19.17;6.37;;;4.80;73.80;;;;;;4956416;29;20122;-86
2021/03/02 09:09:09;;;;;;;13.25;5.93;;;4.90;73.70;;;;;;4955725;29;20031;-87
2021/03/02 09:11:42;;;;;;;12.30;5.90;;;4.90;73.70;;;;;;4939215;29;20043;-86
2021/03/02 09:14:21;;;;;;;12.60;5.90;;;5.10;73.50;;;;;;4955892;29;20118;-85
2021/03/02 09:16:51;;;;;;;14.33;6.17;;;5.10;73.40;;;;;;4954894;29;20039;-81
2021/03/02 09:19:24;;;;;;;10.47;5.80;;;5.10;73.10;;;;;;4953586;29;20058;-77
2021/03/02 09:22:02;;;;;;;12.03;6.07;;;5.10;72.90;;;;;;4933008;29;20056;-78
2021/03/02 09:24:31;;;;;;;12.13;5.93;;;5.20;72.70;;;;;;4917859;29;20040;-79
2021/03/02 09:27:01;;;;;;;14.13;5.90;;;5.20;72.60;;;;;;4919015;29;20032;-77
2021/03/02 09:29:32;;;;;;;15.27;6.10;;;5.20;72.40;;;;;;4918343;29;20063;-75
2021/03/02 09:32:00;;;;;;;14.00;5.97;;;5.30;72.30;;;;;;4935199;29;20054;-77
2021/03/02 09:34:37;;;;;;;11.10;5.63;;;5.30;72.20;;;;;;4934275;29;20060;-76
2021/03/02 09:37:11;;;;;;;13.20;6.50;;;5.40;72.30;;;;;;4934760;29;20040;-77
2021/03/02 09:39:41;;;;;;;16.80;6.27;;;5.50;72.20;;;;;;4933931;29;20042;-78
2021/03/02 09:42:18;;;;;;;12.50;6.43;;;5.70;72.00;;;;;;4934979;29;20123;-76
2021/03/02 09:44:46;;;;;;;13.37;6.63;;;5.90;71.20;;;;;;4934289;29;20044;-77
2021/03/02 09:47:18;;;;;;;12.97;7.23;;;5.90;70.70;;;;;;4934770;29;20431;-79
2021/03/02 09:49:59;;;;;;;15.00;6.50;;;5.90;70.70;;;;;;4928758;29;20036;-78
2021/03/02 09:52:33;;;;;;;11.23;6.43;;;6.00;70.90;;;;;;4900180;29;20047;-79
2021/03/02 09:55:22;;;;;;;17.00;6.90;;;6.00;71.00;;;;;;4900049;29;20040;-80
2021/03/02 09:57:57;;;;;;;15.53;6.77;;;6.00;71.00;;;;;;4907615;29;20032;-80
2021/03/02 10:00:31;;;;;;;13.47;7.07;;;6.00;70.80;;;;;;4932446;29;20044;-79
2021/03/02 10:02:59;;;;;;;14.40;6.77;;;6.00;71.00;;;;;;4917735;29;20032;-78
2021/03/02 10:05:33;;;;;;;15.27;7.07;;;6.10;70.90;;;;;;4919011;29;20039;-79
2021/03/02 10:08:18;;;;;;;13.17;6.77;;;6.30;70.50;;;;;;4934462;29;20043;-76
2021/03/02 10:10:44;;;;;;;16.23;7.00;;;6.30;70.70;;;;;;4934790;29;20048;-76
2021/03/02 10:13:10;;;;;;;15.27;7.80;;;6.50;70.00;;;;;;4920990;29;20110;-76
2021/03/02 10:15:36;;;;;;;16.00;7.87;;;6.60;69.70;;;;;;4933362;29;20032;-77
2021/03/02 10:18:24;;;;;;;15.50;8.13;;;6.70;69.30;;;;;;4935654;29;20028;-77
2021/03/02 10:21:16;;;;;;;17.10;7.57;;;6.80;69.60;;;;;;4935038;29;20043;-79
2021/03/02 10:23:44;;;;;;;13.48;7.00;;;6.80;69.60;;;;;;4946674;29;20395;-74
2021/03/02 10:26:11;;;;;;;24.37;11.80;;;6.90;70.70;;;;;;4953486;29;20043;-77
2021/03/02 10:28:38;;;;;;;27.20;14.40;;;6.90;69.70;;;;;;4953174;29;20039;-79
2021/03/02 10:31:04;;;;;;;18.90;8.93;;;7.00;69.50;;;;;;4954200;28;20040;-74
2021/03/02 10:33:30;;;;;;;14.93;8.27;;;7.00;69.30;;;;;;4946119;29;20408;-75
2021/03/02 10:35:57;;;;;;;17.17;8.23;;;6.90;69.80;;;;;;4952105;29;20095;-74
2021/03/02 10:38:23;;;;;;;17.20;7.83;;;7.00;69.50;;;;;;4953042;29;20476;-77
2021/03/02 10:40:49;;;;;;;16.07;7.70;;;7.10;69.00;;;;;;4953796;29;20035;-77
2021/03/02 10:43:14;;;;;;;14.07;7.67;;;7.20;69.60;;;;;;4952815;29;20075;-76
2021/03/02 10:45:40;;;;;;;15.13;8.03;;;7.30;68.90;;;;;;4952482;29;20063;-77
2021/03/02 10:48:06;;;;;;;15.80;7.57;;;7.40;68.80;;;;;;4952842;29;20464;-77
2021/03/02 10:50:32;;;;;;;17.33;7.97;;;7.40;68.50;;;;;;4953917;28;20039;-77
2021/03/02 10:52:58;;;;;;;16.60;8.20;;;7.40;68.10;;;;;;4953916;28;20039;-77
2021/03/02 10:55:24;;;;;;;16.17;7.27;;;7.30;68.10;;;;;;4952788;28;20039;-77
2021/03/02 10:58:18;;;;;;;15.03;7.77;;;7.30;68.50;;;;;;4955780;29;20047;-77
2021/03/02 11:00:44;;;;;;;17.60;7.97;;;7.30;68.60;;;;;;4940678;29;20036;-78
2021/03/02 11:03:09;;;;;;;15.83;7.27;;;7.30;68.50;;;;;;4937397;29;20091;-78
2021/03/02 11:05:36;;;;;;;18.10;8.30;;;7.40;68.70;;;;;;4938671;29;20040;-78
2021/03/02 11:08:02;;;;;;;16.47;7.53;;;7.40;68.30;;;;;;4940488;29;20031;-78
2021/03/02 11:10:28;;;;;;;19.17;9.00;;;7.60;68.20;;;;;;4939511;29;20039;-77
2021/03/02 11:12:54;;;;;;;17.43;8.00;;;7.60;68.20;;;;;;4939536;29;20027;-77
2021/03/02 11:15:19;;;;;;;16.93;8.73;;;7.80;68.30;;;;;;4939890;29;20050;-76
2021/03/02 11:17:45;;;;;;;14.70;7.87;;;7.80;67.00;;;;;;4939438;29;20174;-77
2021/03/02 11:20:11;;;;;;;16.07;7.07;;;7.90;67.00;;;;;;4956526;29;20027;-76
2021/03/02 11:22:36;;;;;;;14.23;7.33;;;8.00;66.40;;;;;;4956550;29;20051;-76
2021/03/02 11:25:03;;;;;;;17.33;7.75;;;8.00;66.10;;;;;;4939463;29;20047;-76
2021/03/02 11:27:28;;;;;;;16.27;7.60;;;8.00;66.40;;;;;;4939530;29;20067;-76
2021/03/02 11:29:54;;;;;;;13.23;7.50;;;8.00;66.30;;;;;;4930483;29;20075;-76
2021/03/02 11:32:20;;;;;;;13.80;7.70;;;8.10;65.70;;;;;;4920373;29;20100;-76
2021/03/02 11:34:46;;;;;;;16.67;7.30;;;8.10;65.80;;;;;;4936753;29;20102;-76
2021/03/02 11:37:11;;;;;;;15.57;7.83;;;8.20;65.60;;;;;;4937301;29;20034;-76
2021/03/02 11:39:37;;;;;;;18.73;8.10;;;8.20;65.70;;;;;;4920071;29;20063;-76
2021/03/02 11:42:03;;;;;;;15.73;8.00;;;8.20;65.80;;;;;;4937530;29;20027;-76
2021/03/02 11:44:30;;;;;;;15.50;8.45;;;8.30;67.50;;;;;;4920386;29;20350;-76
2021/03/02 11:46:56;;;;;;;14.43;7.20;;;8.50;67.00;;;;;;4936930;29;20031;-76
2021/03/02 11:49:22;;;;;;;16.00;7.93;;;8.50;66.20;;;;;;4919965;29;20027;-76
2021/03/02 11:51:48;;;;;;;16.30;8.65;;;8.60;64.90;;;;;;4919582;29;20052;-76
2021/03/02 11:54:13;;;;;;;16.98;8.05;;;8.70;65.60;;;;;;4920143;29;20134;-76
2021/03/02 11:56:39;;;;;;;13.32;7.45;;;8.90;66.70;;;;;;4936752;29;20086;-77
2021/03/02 11:59:05;;;;;;;14.70;7.78;;;8.90;65.10;;;;;;4919852;29;20469;-76
2021/03/02 12:01:30;;;;;;;13.13;6.95;;;9.00;64.40;;;;;;4937038;29;20039;-77
2021/03/02 12:03:56;;;;;;;17.75;8.23;;;9.00;63.50;;;;;;4933387;29;20032;-77
2021/03/02 12:06:22;;;;;;;15.55;7.28;;;9.10;62.30;;;;;;4920223;29;20032;-77
2021/03/02 12:08:47;;;;;;;15.95;7.30;;;9.20;61.50;;;;;;4919578;29;20028;-78
2021/03/02 12:11:13;;;;;;;15.95;8.00;;;9.30;61.00;;;;;;4936898;29;20040;-78
2021/03/02 12:13:39;;;;;;;16.45;7.28;;;9.50;60.50;;;;;;4936925;29;20031;-77
2021/03/02 12:16:05;;;;;;;15.20;7.50;;;9.60;60.40;;;;;;4920027;29;20392;-77
2021/03/02 12:18:31;;;;;;;16.05;7.68;;;9.80;59.80;;;;;;4919738;29;20089;-77
2021/03/02 12:20:56;;;;;;;15.75;8.45;;;10.00;59.40;;;;;;4936345;29;20457;-77
2021/03/02 12:23:22;;;;;;;15.52;7.97;;;10.20;58.90;;;;;;4931829;29;20550;-77
2021/03/02 12:25:48;;;;;;;18.48;8.77;;;10.30;59.30;;;;;;4955520;28;20035;-78
2021/03/02 12:28:13;;;;;;;15.82;8.60;;;10.60;58.90;;;;;;4954938;29;20027;-79
2021/03/02 12:30:39;;;;;;;15.23;8.23;;;10.90;57.90;;;;;;4954489;29;20043;-77
2021/03/02 12:33:06;;;;;;;16.75;7.70;;;11.10;56.80;;;;;;4955380;29;20174;-77
2021/03/02 12:35:31;;;;;;;18.70;8.20;;;11.40;56.40;;;;;;4955586;28;20035;-77
2021/03/02 12:37:57;;;;;;;16.38;7.70;;;11.60;55.80;;;;;;4955409;29;20337;-77
2021/03/02 12:40:23;;;;;;;17.58;8.40;;;11.90;55.10;;;;;;4954196;29;20130;-77
2021/03/02 12:42:49;;;;;;;18.13;8.13;;;12.20;53.70;;;;;;4953946;29;20027;-77
2021/03/02 12:45:15;;;;;;;15.23;8.20;;;12.60;52.10;;;;;;4954141;29;20086;-77
2021/03/02 12:47:42;;;;;;;17.27;7.65;;;12.90;51.50;;;;;;4953834;29;20054;-79
2021/03/02 12:50:08;;;;;;;16.40;8.10;;;13.20;51.00;;;;;;4953938;29;20417;-77
2021/03/02 12:52:39;;;;;;;15.68;8.73;;;13.50;49.80;;;;;;4953804;29;20045;-78
2021/03/02 12:55:07;;;;;;;17.15;7.75;;;13.80;48.90;;;;;;4950464;29;20062;-78